sensor_id;sensor_type;location;lat;lon;timestamp;temperature;humidity
5938;DHT22;2994;51.220;4.412;2022-08-06T00:01:41;20.12;46.14
5938;DHT22;2994;51.220;4.412;2022-08-06T00:04:07;20.11;46.60
5938;DHT22;2994;51.220;4.412;2022-08-06T00:06:32;20.06;46.51
5938;DHT22;2994;51.220;4.412;2022-08-06T00:08:58;20.10;46.93
5938;DHT22;2994;51.220;4.412;2022-08-06T00:11:23;20.09;47.44
5938;DHT22;2994;51.220;4.412;2022-08-06T00:13:49;20.07;47.15
5938;DHT22;2994;51.220;4.412;2022-08-06T00:16:14;20.02;47.05
5938;DHT22;2994;51.220;4.412;2022-08-06T00:18:39;20.00;47.25
5938;DHT22;2994;51.220;4.412;2022-08-06T00:21:05;20.01;47.38
5938;DHT22;2994;51.220;4.412;2022-08-06T00:23:30;20.00;47.46
5938;DHT22;2994;51.220;4.412;2022-08-06T00:25:56;19.97;47.53
5938;DHT22;2994;51.220;4.412;2022-08-06T00:28:23;19.95;47.97
5938;DHT22;2994;51.220;4.412;2022-08-06T00:30:49;19.92;47.40
5938;DHT22;2994;51.220;4.412;2022-08-06T00:33:14;19.91;48.05
5938;DHT22;2994;51.220;4.412;2022-08-06T00:35:40;19.90;47.63
5938;DHT22;2994;51.220;4.412;2022-08-06T00:38:06;19.91;47.20
5938;DHT22;2994;51.220;4.412;2022-08-06T00:40:31;19.87;47.32
5938;DHT22;2994;51.220;4.412;2022-08-06T00:42:59;19.84;47.67
5938;DHT22;2994;51.220;4.412;2022-08-06T00:45:24;19.84;48.14
5938;DHT22;2994;51.220;4.412;2022-08-06T00:47:50;19.84;48.76
5938;DHT22;2994;51.220;4.412;2022-08-06T00:50:15;19.82;48.37
5938;DHT22;2994;51.220;4.412;2022-08-06T00:52:41;19.79;48.54
5938;DHT22;2994;51.220;4.412;2022-08-06T00:55:06;19.79;49.00
5938;DHT22;2994;51.220;4.412;2022-08-06T00:57:32;19.76;48.05
5938;DHT22;2994;51.220;4.412;2022-08-06T00:59:57;19.77;48.56
5938;DHT22;2994;51.220;4.412;2022-08-06T01:02:23;19.75;48.95
5938;DHT22;2994;51.220;4.412;2022-08-06T01:04:48;19.77;49.21
5938;DHT22;2994;51.220;4.412;2022-08-06T01:07:14;19.75;49.45
5938;DHT22;2994;51.220;4.412;2022-08-06T01:09:39;19.73;50.14
5938;DHT22;2994;51.220;4.412;2022-08-06T01:12:05;19.73;50.14
5938;DHT22;2994;51.220;4.412;2022-08-06T01:14:31;19.71;50.27
5938;DHT22;2994;51.220;4.412;2022-08-06T01:17:03;19.71;50.26
5938;DHT22;2994;51.220;4.412;2022-08-06T01:19:46;19.71;50.21
5938;DHT22;2994;51.220;4.412;2022-08-06T01:22:42;19.72;50.50
5938;DHT22;2994;51.220;4.412;2022-08-06T01:28:22;19.69;50.02
5938;DHT22;2994;51.220;4.412;2022-08-06T01:30:53;19.67;51.27
5938;DHT22;2994;51.220;4.412;2022-08-06T01:33:26;19.68;50.63
5938;DHT22;2994;51.220;4.412;2022-08-06T01:35:56;19.67;50.61
5938;DHT22;2994;51.220;4.412;2022-08-06T01:38:50;19.68;50.53
5938;DHT22;2994;51.220;4.412;2022-08-06T01:41:22;19.68;50.53
5938;DHT22;2994;51.220;4.412;2022-08-06T01:44:15;19.66;51.14
5938;DHT22;2994;51.220;4.412;2022-08-06T01:46:46;19.63;50.63
5938;DHT22;2994;51.220;4.412;2022-08-06T01:49:16;19.65;50.89
5938;DHT22;2994;51.220;4.412;2022-08-06T01:51:44;19.63;50.96
5938;DHT22;2994;51.220;4.412;2022-08-06T01:54:12;19.63;50.98
5938;DHT22;2994;51.220;4.412;2022-08-06T01:56:40;19.66;50.80
5938;DHT22;2994;51.220;4.412;2022-08-06T01:59:06;19.63;51.16
5938;DHT22;2994;51.220;4.412;2022-08-06T02:01:34;19.63;51.08
5938;DHT22;2994;51.220;4.412;2022-08-06T02:04:01;19.61;51.13
5938;DHT22;2994;51.220;4.412;2022-08-06T02:06:32;19.61;50.56
5938;DHT22;2994;51.220;4.412;2022-08-06T02:09:04;19.59;51.21
5938;DHT22;2994;51.220;4.412;2022-08-06T02:11:32;19.57;51.07
5938;DHT22;2994;51.220;4.412;2022-08-06T02:14:01;19.58;51.54
5938;DHT22;2994;51.220;4.412;2022-08-06T02:16:33;19.55;51.83
5938;DHT22;2994;51.220;4.412;2022-08-06T02:19:02;19.52;51.75
5938;DHT22;2994;51.220;4.412;2022-08-06T02:21:29;19.52;51.72
5938;DHT22;2994;51.220;4.412;2022-08-06T02:23:56;19.51;51.78
5938;DHT22;2994;51.220;4.412;2022-08-06T02:26:24;19.50;52.11
5938;DHT22;2994;51.220;4.412;2022-08-06T02:28:52;19.52;51.63
5938;DHT22;2994;51.220;4.412;2022-08-06T02:31:18;19.47;51.72
5938;DHT22;2994;51.220;4.412;2022-08-06T02:33:44;19.48;51.94
5938;DHT22;2994;51.220;4.412;2022-08-06T02:36:14;19.46;52.30
5938;DHT22;2994;51.220;4.412;2022-08-06T02:38:46;19.47;51.60
5938;DHT22;2994;51.220;4.412;2022-08-06T02:44:06;19.44;51.56
5938;DHT22;2994;51.220;4.412;2022-08-06T02:46:42;19.44;52.20
5938;DHT22;2994;51.220;4.412;2022-08-06T02:49:23;19.41;51.99
5938;DHT22;2994;51.220;4.412;2022-08-06T02:52:00;19.39;51.92
5938;DHT22;2994;51.220;4.412;2022-08-06T02:54:43;19.38;52.27
5938;DHT22;2994;51.220;4.412;2022-08-06T02:57:14;19.40;52.26
5938;DHT22;2994;51.220;4.412;2022-08-06T02:59:47;19.33;52.40
5938;DHT22;2994;51.220;4.412;2022-08-06T03:02:15;19.33;52.47
5938;DHT22;2994;51.220;4.412;2022-08-06T03:04:44;19.32;52.69
5938;DHT22;2994;51.220;4.412;2022-08-06T03:07:12;19.31;52.59
5938;DHT22;2994;51.220;4.412;2022-08-06T03:09:41;19.29;52.43
5938;DHT22;2994;51.220;4.412;2022-08-06T03:12:09;19.30;52.39
5938;DHT22;2994;51.220;4.412;2022-08-06T03:14:37;19.30;52.55
5938;DHT22;2994;51.220;4.412;2022-08-06T03:17:04;19.30;52.68
5938;DHT22;2994;51.220;4.412;2022-08-06T03:19:31;19.28;52.71
5938;DHT22;2994;51.220;4.412;2022-08-06T03:21:58;19.28;52.60
5938;DHT22;2994;51.220;4.412;2022-08-06T03:24:24;19.27;52.55
5938;DHT22;2994;51.220;4.412;2022-08-06T03:26:51;19.27;52.09
5938;DHT22;2994;51.220;4.412;2022-08-06T03:29:18;19.26;52.30
5938;DHT22;2994;51.220;4.412;2022-08-06T03:31:44;19.27;52.49
5938;DHT22;2994;51.220;4.412;2022-08-06T03:34:10;19.25;52.73
5938;DHT22;2994;51.220;4.412;2022-08-06T03:36:37;19.27;52.29
5938;DHT22;2994;51.220;4.412;2022-08-06T03:39:06;19.24;52.41
5938;DHT22;2994;51.220;4.412;2022-08-06T03:41:35;19.21;53.01
5938;DHT22;2994;51.220;4.412;2022-08-06T03:44:02;19.22;53.07
5938;DHT22;2994;51.220;4.412;2022-08-06T03:46:42;19.20;52.50
5938;DHT22;2994;51.220;4.412;2022-08-06T03:49:14;19.15;52.24
5938;DHT22;2994;51.220;4.412;2022-08-06T03:51:42;19.17;52.01
5938;DHT22;2994;51.220;4.412;2022-08-06T03:54:10;19.15;52.71
5938;DHT22;2994;51.220;4.412;2022-08-06T03:56:37;19.14;52.89
5938;DHT22;2994;51.220;4.412;2022-08-06T03:59:05;19.13;52.59
5938;DHT22;2994;51.220;4.412;2022-08-06T04:01:34;19.13;52.47
5938;DHT22;2994;51.220;4.412;2022-08-06T04:04:01;19.13;52.41
5938;DHT22;2994;51.220;4.412;2022-08-06T04:06:27;19.13;52.44
5938;DHT22;2994;51.220;4.412;2022-08-06T04:08:54;19.12;52.60
5938;DHT22;2994;51.220;4.412;2022-08-06T04:11:20;19.12;52.66
5938;DHT22;2994;51.220;4.412;2022-08-06T04:13:46;19.10;52.62
5938;DHT22;2994;51.220;4.412;2022-08-06T04:16:14;19.10;53.06
5938;DHT22;2994;51.220;4.412;2022-08-06T04:18:42;19.10;53.19
5938;DHT22;2994;51.220;4.412;2022-08-06T04:21:12;19.06;53.62
5938;DHT22;2994;51.220;4.412;2022-08-06T04:23:39;19.05;53.14
5938;DHT22;2994;51.220;4.412;2022-08-06T04:26:07;19.05;53.33
5938;DHT22;2994;51.220;4.412;2022-08-06T04:28:36;19.06;54.20
5938;DHT22;2994;51.220;4.412;2022-08-06T04:31:02;19.05;54.57
5938;DHT22;2994;51.220;4.412;2022-08-06T04:33:30;19.07;54.71
5938;DHT22;2994;51.220;4.412;2022-08-06T04:35:56;19.03;55.13
5938;DHT22;2994;51.220;4.412;2022-08-06T04:38:23;19.06;54.65
5938;DHT22;2994;51.220;4.412;2022-08-06T04:40:49;19.11;54.68
5938;DHT22;2994;51.220;4.412;2022-08-06T04:43:15;19.13;55.13
5938;DHT22;2994;51.220;4.412;2022-08-06T04:45:42;19.11;54.48
5938;DHT22;2994;51.220;4.412;2022-08-06T04:48:10;19.13;54.03
5938;DHT22;2994;51.220;4.412;2022-08-06T04:50:38;19.13;54.33
5938;DHT22;2994;51.220;4.412;2022-08-06T04:53:06;19.13;54.32
5938;DHT22;2994;51.220;4.412;2022-08-06T04:55:31;19.14;55.27
5938;DHT22;2994;51.220;4.412;2022-08-06T04:57:57;19.17;54.65
5938;DHT22;2994;51.220;4.412;2022-08-06T05:00:22;19.24;55.02
5938;DHT22;2994;51.220;4.412;2022-08-06T05:02:48;19.28;54.55
5938;DHT22;2994;51.220;4.412;2022-08-06T05:05:14;19.27;55.16
5938;DHT22;2994;51.220;4.412;2022-08-06T05:07:42;19.32;54.19
5938;DHT22;2994;51.220;4.412;2022-08-06T05:10:09;19.36;54.11
5938;DHT22;2994;51.220;4.412;2022-08-06T05:12:44;19.35;54.07
5938;DHT22;2994;51.220;4.412;2022-08-06T05:15:16;19.37;54.10
5938;DHT22;2994;51.220;4.412;2022-08-06T05:18:08;19.33;54.96
5938;DHT22;2994;51.220;4.412;2022-08-06T05:20:38;19.37;54.92
5938;DHT22;2994;51.220;4.412;2022-08-06T05:23:10;19.37;55.27
5938;DHT22;2994;51.220;4.412;2022-08-06T05:25:36;19.37;53.96
5938;DHT22;2994;51.220;4.412;2022-08-06T05:28:06;19.40;54.41
5938;DHT22;2994;51.220;4.412;2022-08-06T05:30:32;19.35;54.20
5938;DHT22;2994;51.220;4.412;2022-08-06T05:32:57;19.37;54.00
5938;DHT22;2994;51.220;4.412;2022-08-06T05:35:23;19.44;53.68
5938;DHT22;2994;51.220;4.412;2022-08-06T05:37:49;19.42;54.66
5938;DHT22;2994;51.220;4.412;2022-08-06T05:40:15;19.47;54.49
5938;DHT22;2994;51.220;4.412;2022-08-06T05:42:40;19.37;54.43
5938;DHT22;2994;51.220;4.412;2022-08-06T05:45:09;19.23;54.58
5938;DHT22;2994;51.220;4.412;2022-08-06T05:47:36;19.11;54.68
5938;DHT22;2994;51.220;4.412;2022-08-06T05:50:11;19.16;54.41
5938;DHT22;2994;51.220;4.412;2022-08-06T05:52:56;19.13;54.91
5938;DHT22;2994;51.220;4.412;2022-08-06T05:55:31;19.24;54.57
5938;DHT22;2994;51.220;4.412;2022-08-06T05:58:02;19.25;54.04
5938;DHT22;2994;51.220;4.412;2022-08-06T06:00:31;19.23;54.41
5938;DHT22;2994;51.220;4.412;2022-08-06T06:02:59;19.29;53.81
5938;DHT22;2994;51.220;4.412;2022-08-06T06:05:25;19.39;54.14
5938;DHT22;2994;51.220;4.412;2022-08-06T06:07:52;19.41;54.35
5938;DHT22;2994;51.220;4.412;2022-08-06T06:10:22;19.41;53.91
5938;DHT22;2994;51.220;4.412;2022-08-06T06:12:49;19.41;53.81
5938;DHT22;2994;51.220;4.412;2022-08-06T06:15:16;19.46;54.04
5938;DHT22;2994;51.220;4.412;2022-08-06T06:23:48;19.53;53.39
5938;DHT22;2994;51.220;4.412;2022-08-06T06:26:37;19.54;53.65
5938;DHT22;2994;51.220;4.412;2022-08-06T06:29:11;19.55;54.22
5938;DHT22;2994;51.220;4.412;2022-08-06T06:31:47;19.59;54.95
5938;DHT22;2994;51.220;4.412;2022-08-06T06:34:23;19.61;54.80
5938;DHT22;2994;51.220;4.412;2022-08-06T06:36:57;19.62;52.54
5938;DHT22;2994;51.220;4.412;2022-08-06T06:39:30;19.69;52.09
5938;DHT22;2994;51.220;4.412;2022-08-06T06:42:03;19.70;52.88
5938;DHT22;2994;51.220;4.412;2022-08-06T06:44:37;19.79;52.88
5938;DHT22;2994;51.220;4.412;2022-08-06T06:47:13;19.83;51.69
5938;DHT22;2994;51.220;4.412;2022-08-06T06:49:53;19.86;52.04
5938;DHT22;2994;51.220;4.412;2022-08-06T06:52:26;19.87;52.13
5938;DHT22;2994;51.220;4.412;2022-08-06T06:54:59;19.94;51.78
5938;DHT22;2994;51.220;4.412;2022-08-06T06:57:31;19.98;53.46
5938;DHT22;2994;51.220;4.412;2022-08-06T07:00:01;20.02;52.91
5938;DHT22;2994;51.220;4.412;2022-08-06T07:02:30;20.09;51.85
5938;DHT22;2994;51.220;4.412;2022-08-06T07:04:57;20.14;50.95
5938;DHT22;2994;51.220;4.412;2022-08-06T07:07:26;20.14;52.53
5938;DHT22;2994;51.220;4.412;2022-08-06T07:09:54;20.19;53.80
5938;DHT22;2994;51.220;4.412;2022-08-06T07:12:21;20.25;51.01
5938;DHT22;2994;51.220;4.412;2022-08-06T07:14:50;20.29;51.69
5938;DHT22;2994;51.220;4.412;2022-08-06T07:17:17;20.36;51.87
5938;DHT22;2994;51.220;4.412;2022-08-06T07:19:45;20.39;51.55
5938;DHT22;2994;51.220;4.412;2022-08-06T07:22:12;20.33;50.37
5938;DHT22;2994;51.220;4.412;2022-08-06T07:24:38;20.32;49.79
5938;DHT22;2994;51.220;4.412;2022-08-06T07:27:06;20.35;49.91
5938;DHT22;2994;51.220;4.412;2022-08-06T07:29:33;20.40;50.44
5938;DHT22;2994;51.220;4.412;2022-08-06T07:31:59;20.40;49.30
5938;DHT22;2994;51.220;4.412;2022-08-06T07:34:26;20.49;48.40
5938;DHT22;2994;51.220;4.412;2022-08-06T07:36:53;20.50;49.51
5938;DHT22;2994;51.220;4.412;2022-08-06T07:39:26;20.59;50.49
5938;DHT22;2994;51.220;4.412;2022-08-06T07:41:53;20.65;49.85
5938;DHT22;2994;51.220;4.412;2022-08-06T07:44:21;20.73;50.83
5938;DHT22;2994;51.220;4.412;2022-08-06T07:46:49;20.78;49.30
5938;DHT22;2994;51.220;4.412;2022-08-06T07:49:19;20.84;48.33
5938;DHT22;2994;51.220;4.412;2022-08-06T07:51:46;20.92;47.47
5938;DHT22;2994;51.220;4.412;2022-08-06T07:54:14;20.95;48.77
5938;DHT22;2994;51.220;4.412;2022-08-06T07:56:42;20.94;49.67
5938;DHT22;2994;51.220;4.412;2022-08-06T07:59:08;21.03;48.12
5938;DHT22;2994;51.220;4.412;2022-08-06T08:01:35;21.15;47.46
5938;DHT22;2994;51.220;4.412;2022-08-06T08:04:06;21.27;47.17
5938;DHT22;2994;51.220;4.412;2022-08-06T08:06:52;21.40;47.48
5938;DHT22;2994;51.220;4.412;2022-08-06T08:09:19;21.49;48.12
5938;DHT22;2994;51.220;4.412;2022-08-06T08:11:46;21.63;48.32
5938;DHT22;2994;51.220;4.412;2022-08-06T08:14:18;21.73;46.80
5938;DHT22;2994;51.220;4.412;2022-08-06T08:16:45;21.88;47.46
5938;DHT22;2994;51.220;4.412;2022-08-06T08:19:24;21.87;43.96
5938;DHT22;2994;51.220;4.412;2022-08-06T08:21:53;22.11;43.80
5938;DHT22;2994;51.220;4.412;2022-08-06T08:24:22;22.26;45.58
5938;DHT22;2994;51.220;4.412;2022-08-06T08:26:48;22.47;44.65
5938;DHT22;2994;51.220;4.412;2022-08-06T08:29:13;22.64;43.54
5938;DHT22;2994;51.220;4.412;2022-08-06T08:31:39;22.69;44.25
5938;DHT22;2994;51.220;4.412;2022-08-06T08:34:04;22.77;41.74
5938;DHT22;2994;51.220;4.412;2022-08-06T08:36:31;22.58;41.44
5938;DHT22;2994;51.220;4.412;2022-08-06T08:38:56;22.70;41.83
5938;DHT22;2994;51.220;4.412;2022-08-06T08:41:31;22.82;44.74
5938;DHT22;2994;51.220;4.412;2022-08-06T08:44:03;22.88;42.75
5938;DHT22;2994;51.220;4.412;2022-08-06T08:46:34;22.86;40.86
5938;DHT22;2994;51.220;4.412;2022-08-06T08:49:02;22.73;41.87
5938;DHT22;2994;51.220;4.412;2022-08-06T08:51:31;22.84;43.19
5938;DHT22;2994;51.220;4.412;2022-08-06T08:53:58;22.92;41.00
5938;DHT22;2994;51.220;4.412;2022-08-06T08:56:25;22.88;42.97
5938;DHT22;2994;51.220;4.412;2022-08-06T08:58:51;23.01;42.54
5938;DHT22;2994;51.220;4.412;2022-08-06T09:01:17;23.14;42.85
5938;DHT22;2994;51.220;4.412;2022-08-06T09:03:44;23.23;42.11
5938;DHT22;2994;51.220;4.412;2022-08-06T09:06:10;23.35;41.99
5938;DHT22;2994;51.220;4.412;2022-08-06T09:08:37;23.44;41.86
5938;DHT22;2994;51.220;4.412;2022-08-06T09:11:03;23.51;40.18
5938;DHT22;2994;51.220;4.412;2022-08-06T09:13:29;23.56;42.24
5938;DHT22;2994;51.220;4.412;2022-08-06T09:15:56;23.62;37.85
5938;DHT22;2994;51.220;4.412;2022-08-06T09:18:22;23.60;37.99
5938;DHT22;2994;51.220;4.412;2022-08-06T09:20:48;23.71;39.52
5938;DHT22;2994;51.220;4.412;2022-08-06T09:23:14;23.81;40.88
5938;DHT22;2994;51.220;4.412;2022-08-06T09:25:51;23.91;39.34
5938;DHT22;2994;51.220;4.412;2022-08-06T09:28:28;23.97;40.83
5938;DHT22;2994;51.220;4.412;2022-08-06T09:31:09;23.97;40.18
5938;DHT22;2994;51.220;4.412;2022-08-06T09:33:38;24.03;40.81
5938;DHT22;2994;51.220;4.412;2022-08-06T09:38:31;24.13;37.83
5938;DHT22;2994;51.220;4.412;2022-08-06T09:41:08;23.94;38.11
5938;DHT22;2994;51.220;4.412;2022-08-06T09:43:34;24.13;35.51
5938;DHT22;2994;51.220;4.412;2022-08-06T09:46:00;24.19;38.27
5938;DHT22;2994;51.220;4.412;2022-08-06T09:48:25;24.30;36.41
5938;DHT22;2994;51.220;4.412;2022-08-06T09:50:51;24.40;38.30
5938;DHT22;2994;51.220;4.412;2022-08-06T09:53:17;24.47;37.49
5938;DHT22;2994;51.220;4.412;2022-08-06T09:55:43;24.58;38.23
5938;DHT22;2994;51.220;4.412;2022-08-06T09:58:09;24.36;34.71
5938;DHT22;2994;51.220;4.412;2022-08-06T10:00:36;24.32;35.91
5938;DHT22;2994;51.220;4.412;2022-08-06T10:03:04;24.41;36.43
5938;DHT22;2994;51.220;4.412;2022-08-06T10:05:31;24.55;35.82
5938;DHT22;2994;51.220;4.412;2022-08-06T10:08:12;24.56;35.47
5938;DHT22;2994;51.220;4.412;2022-08-06T10:10:45;24.74;34.49
5938;DHT22;2994;51.220;4.412;2022-08-06T10:13:25;24.69;35.31
5938;DHT22;2994;51.220;4.412;2022-08-06T10:15:53;24.89;36.70
5938;DHT22;2994;51.220;4.412;2022-08-06T10:18:36;25.01;34.99
5938;DHT22;2994;51.220;4.412;2022-08-06T10:21:09;25.08;34.57
5938;DHT22;2994;51.220;4.412;2022-08-06T10:23:37;25.08;36.32
5938;DHT22;2994;51.220;4.412;2022-08-06T10:26:05;25.00;35.02
5938;DHT22;2994;51.220;4.412;2022-08-06T10:28:33;25.30;34.22
5938;DHT22;2994;51.220;4.412;2022-08-06T10:31:02;25.40;35.31
5938;DHT22;2994;51.220;4.412;2022-08-06T10:33:39;25.60;34.19
5938;DHT22;2994;51.220;4.412;2022-08-06T10:36:11;25.78;32.96
5938;DHT22;2994;51.220;4.412;2022-08-06T10:38:40;25.84;33.30
5938;DHT22;2994;51.220;4.412;2022-08-06T10:41:09;25.78;30.02
5938;DHT22;2994;51.220;4.412;2022-08-06T10:43:36;25.86;30.99
5938;DHT22;2994;51.220;4.412;2022-08-06T10:46:08;25.69;33.04
5938;DHT22;2994;51.220;4.412;2022-08-06T10:48:35;25.89;30.00
5938;DHT22;2994;51.220;4.412;2022-08-06T10:51:03;25.97;32.35
5938;DHT22;2994;51.220;4.412;2022-08-06T10:53:33;26.10;31.63
5938;DHT22;2994;51.220;4.412;2022-08-06T10:56:03;26.17;30.71
5938;DHT22;2994;51.220;4.412;2022-08-06T10:58:33;26.32;31.27
5938;DHT22;2994;51.220;4.412;2022-08-06T11:01:02;26.34;30.56
5938;DHT22;2994;51.220;4.412;2022-08-06T11:09:31;26.37;29.86
5938;DHT22;2994;51.220;4.412;2022-08-06T11:12:17;26.27;29.88
5938;DHT22;2994;51.220;4.412;2022-08-06T11:14:49;26.11;30.50
5938;DHT22;2994;51.220;4.412;2022-08-06T11:17:15;26.36;30.52
5938;DHT22;2994;51.220;4.412;2022-08-06T11:19:48;26.37;28.79
5938;DHT22;2994;51.220;4.412;2022-08-06T11:22:36;26.35;29.71
5938;DHT22;2994;51.220;4.412;2022-08-06T11:25:04;26.40;28.71
5938;DHT22;2994;51.220;4.412;2022-08-06T11:30:15;26.48;29.63
5938;DHT22;2994;51.220;4.412;2022-08-06T11:32:49;26.48;30.68
5938;DHT22;2994;51.220;4.412;2022-08-06T11:38:04;26.47;27.40
5938;DHT22;2994;51.220;4.412;2022-08-06T11:40:55;26.25;29.39
5938;DHT22;2994;51.220;4.412;2022-08-06T11:47:05;26.83;28.36
5938;DHT22;2994;51.220;4.412;2022-08-06T11:49:33;26.51;28.76
5938;DHT22;2994;51.220;4.412;2022-08-06T11:52:00;26.13;28.93
5938;DHT22;2994;51.220;4.412;2022-08-06T11:54:28;25.94;29.52
5938;DHT22;2994;51.220;4.412;2022-08-06T11:59:29;25.81;27.47
5938;DHT22;2994;51.220;4.412;2022-08-06T12:01:56;26.02;28.41
5938;DHT22;2994;51.220;4.412;2022-08-06T12:15:02;25.87;29.78
5938;DHT22;2994;51.220;4.412;2022-08-06T12:17:29;26.41;29.58
5938;DHT22;2994;51.220;4.412;2022-08-06T12:19:59;26.72;28.07
5938;DHT22;2994;51.220;4.412;2022-08-06T12:22:28;26.49;28.83
5938;DHT22;2994;51.220;4.412;2022-08-06T12:24:57;26.32;29.26
5938;DHT22;2994;51.220;4.412;2022-08-06T12:27:30;26.47;27.59
5938;DHT22;2994;51.220;4.412;2022-08-06T12:29:57;26.90;26.91
5938;DHT22;2994;51.220;4.412;2022-08-06T12:32:25;26.92;28.90
5938;DHT22;2994;51.220;4.412;2022-08-06T12:34:53;27.07;25.88
5938;DHT22;2994;51.220;4.412;2022-08-06T12:37:19;27.01;27.18
5938;DHT22;2994;51.220;4.412;2022-08-06T12:39:46;27.23;26.01
5938;DHT22;2994;51.220;4.412;2022-08-06T12:42:31;27.59;26.16
5938;DHT22;2994;51.220;4.412;2022-08-06T12:44:57;27.73;25.94
5938;DHT22;2994;51.220;4.412;2022-08-06T12:47:23;27.91;23.90
5938;DHT22;2994;51.220;4.412;2022-08-06T12:49:51;27.71;24.53
5938;DHT22;2994;51.220;4.412;2022-08-06T12:52:19;27.56;26.23
5938;DHT22;2994;51.220;4.412;2022-08-06T12:54:48;27.24;25.45
5938;DHT22;2994;51.220;4.412;2022-08-06T12:59:48;26.90;28.54
5938;DHT22;2994;51.220;4.412;2022-08-06T13:02:14;26.79;27.99
5938;DHT22;2994;51.220;4.412;2022-08-06T13:04:44;26.54;27.05
5938;DHT22;2994;51.220;4.412;2022-08-06T13:07:11;26.45;28.66
5938;DHT22;2994;51.220;4.412;2022-08-06T13:09:39;26.40;28.70
5938;DHT22;2994;51.220;4.412;2022-08-06T13:12:19;26.05;29.92
5938;DHT22;2994;51.220;4.412;2022-08-06T13:14:51;26.23;29.33
5938;DHT22;2994;51.220;4.412;2022-08-06T13:17:18;26.19;27.31
5938;DHT22;2994;51.220;4.412;2022-08-06T13:19:54;26.65;27.44
5938;DHT22;2994;51.220;4.412;2022-08-06T13:22:21;27.01;26.46
5938;DHT22;2994;51.220;4.412;2022-08-06T13:24:47;27.49;27.04
5938;DHT22;2994;51.220;4.412;2022-08-06T13:27:13;28.08;25.81
5938;DHT22;2994;51.220;4.412;2022-08-06T13:29:58;28.52;25.59
5938;DHT22;2994;51.220;4.412;2022-08-06T13:32:25;28.13;25.80
5938;DHT22;2994;51.220;4.412;2022-08-06T13:34:53;27.90;24.59
5938;DHT22;2994;51.220;4.412;2022-08-06T13:37:47;27.58;25.27
5938;DHT22;2994;51.220;4.412;2022-08-06T13:40:56;27.17;26.90
5938;DHT22;2994;51.220;4.412;2022-08-06T13:44:00;27.16;27.90
5938;DHT22;2994;51.220;4.412;2022-08-06T13:47:00;27.00;27.45
5938;DHT22;2994;51.220;4.412;2022-08-06T13:49:27;26.91;26.20
5938;DHT22;2994;51.220;4.412;2022-08-06T13:51:52;26.81;27.42
5938;DHT22;2994;51.220;4.412;2022-08-06T13:54:18;26.73;29.66
5938;DHT22;2994;51.220;4.412;2022-08-06T13:56:47;26.61;29.20
5938;DHT22;2994;51.220;4.412;2022-08-06T13:59:16;26.60;27.91
5938;DHT22;2994;51.220;4.412;2022-08-06T14:01:42;27.41;27.36
5938;DHT22;2994;51.220;4.412;2022-08-06T14:04:08;27.78;27.38
5938;DHT22;2994;51.220;4.412;2022-08-06T14:06:33;28.00;26.13
5938;DHT22;2994;51.220;4.412;2022-08-06T14:08:59;27.64;26.25
5938;DHT22;2994;51.220;4.412;2022-08-06T14:11:25;28.01;25.93
5938;DHT22;2994;51.220;4.412;2022-08-06T14:13:51;28.50;25.88
5938;DHT22;2994;51.220;4.412;2022-08-06T14:16:16;28.76;25.75
5938;DHT22;2994;51.220;4.412;2022-08-06T14:18:41;29.14;22.26
5938;DHT22;2994;51.220;4.412;2022-08-06T14:21:07;29.38;23.12
5938;DHT22;2994;51.220;4.412;2022-08-06T14:23:33;29.56;22.60
5938;DHT22;2994;51.220;4.412;2022-08-06T14:25:59;29.16;21.92
5938;DHT22;2994;51.220;4.412;2022-08-06T14:28:26;28.78;22.32
5938;DHT22;2994;51.220;4.412;2022-08-06T14:30:54;28.42;26.04
5938;DHT22;2994;51.220;4.412;2022-08-06T14:33:19;28.11;25.88
5938;DHT22;2994;51.220;4.412;2022-08-06T14:35:45;28.00;25.48
5938;DHT22;2994;51.220;4.412;2022-08-06T14:38:11;28.25;24.43
5938;DHT22;2994;51.220;4.412;2022-08-06T14:40:40;28.57;23.66
5938;DHT22;2994;51.220;4.412;2022-08-06T14:43:25;28.92;25.17
5938;DHT22;2994;51.220;4.412;2022-08-06T14:46:12;29.20;24.93
5938;DHT22;2994;51.220;4.412;2022-08-06T14:48:37;29.49;23.55
5938;DHT22;2994;51.220;4.412;2022-08-06T14:51:04;29.68;24.15
5938;DHT22;2994;51.220;4.412;2022-08-06T14:53:29;29.85;22.05
5938;DHT22;2994;51.220;4.412;2022-08-06T14:55:55;29.88;22.57
5938;DHT22;2994;51.220;4.412;2022-08-06T14:58:20;29.94;23.69
5938;DHT22;2994;51.220;4.412;2022-08-06T15:00:45;29.95;24.75
5938;DHT22;2994;51.220;4.412;2022-08-06T15:03:14;30.17;23.05
5938;DHT22;2994;51.220;4.412;2022-08-06T15:05:41;30.38;22.02
5938;DHT22;2994;51.220;4.412;2022-08-06T15:08:07;30.53;22.30
5938;DHT22;2994;51.220;4.412;2022-08-06T15:10:32;30.53;23.25
5938;DHT22;2994;51.220;4.412;2022-08-06T15:12:58;30.78;21.89
5938;DHT22;2994;51.220;4.412;2022-08-06T15:15:23;35.41;19.61
5938;DHT22;2994;51.220;4.412;2022-08-06T15:17:49;38.86;12.12
5938;DHT22;2994;51.220;4.412;2022-08-06T15:20:14;35.33;17.21
5938;DHT22;2994;51.220;4.412;2022-08-06T15:22:39;37.43;14.47
5938;DHT22;2994;51.220;4.412;2022-08-06T15:25:05;42.63;11.09
5938;DHT22;2994;51.220;4.412;2022-08-06T15:27:31;46.12;9.32
5938;DHT22;2994;51.220;4.412;2022-08-06T15:29:56;48.90;6.79
5938;DHT22;2994;51.220;4.412;2022-08-06T15:32:23;51.38;4.69
5938;DHT22;2994;51.220;4.412;2022-08-06T15:34:49;53.96;2.90
5938;DHT22;2994;51.220;4.412;2022-08-06T15:37:14;55.76;1.37
5938;DHT22;2994;51.220;4.412;2022-08-06T15:39:39;57.49;1.32
5938;DHT22;2994;51.220;4.412;2022-08-06T15:42:05;58.49;2.56
5938;DHT22;2994;51.220;4.412;2022-08-06T15:44:31;59.48;-0.05
5938;DHT22;2994;51.220;4.412;2022-08-06T15:46:58;60.52;-0.34
5938;DHT22;2994;51.220;4.412;2022-08-06T15:49:24;61.01;-0.18
5938;DHT22;2994;51.220;4.412;2022-08-06T15:51:49;61.41;0.37
5938;DHT22;2994;51.220;4.412;2022-08-06T15:54:15;61.96;0.72
5938;DHT22;2994;51.220;4.412;2022-08-06T15:56:40;62.26;0.27
5938;DHT22;2994;51.220;4.412;2022-08-06T15:59:06;62.46;0.30
5938;DHT22;2994;51.220;4.412;2022-08-06T16:01:32;62.47;0.49
5938;DHT22;2994;51.220;4.412;2022-08-06T16:03:59;62.27;-0.01
5938;DHT22;2994;51.220;4.412;2022-08-06T16:06:24;53.58;0.42
5938;DHT22;2994;51.220;4.412;2022-08-06T16:08:49;49.80;3.73
5938;DHT22;2994;51.220;4.412;2022-08-06T16:11:17;55.18;3.71
5938;DHT22;2994;51.220;4.412;2022-08-06T16:13:45;49.78;2.37
5938;DHT22;2994;51.220;4.412;2022-08-06T16:16:10;45.78;5.01
5938;DHT22;2994;51.220;4.412;2022-08-06T16:18:36;43.11;6.99
5938;DHT22;2994;51.220;4.412;2022-08-06T16:21:02;41.56;9.66
5938;DHT22;2994;51.220;4.412;2022-08-06T16:23:27;42.32;7.41
5938;DHT22;2994;51.220;4.412;2022-08-06T16:25:53;39.79;10.30
5938;DHT22;2994;51.220;4.412;2022-08-06T16:28:19;37.62;12.46
5938;DHT22;2994;51.220;4.412;2022-08-06T16:30:44;35.95;13.50
5938;DHT22;2994;51.220;4.412;2022-08-06T16:33:10;34.78;15.69
5938;DHT22;2994;51.220;4.412;2022-08-06T16:35:36;33.83;16.93
5938;DHT22;2994;51.220;4.412;2022-08-06T16:38:02;32.97;17.09
5938;DHT22;2994;51.220;4.412;2022-08-06T16:40:28;32.24;17.53
5938;DHT22;2994;51.220;4.412;2022-08-06T16:42:54;31.53;19.89
5938;DHT22;2994;51.220;4.412;2022-08-06T16:45:21;30.97;19.51
5938;DHT22;2994;51.220;4.412;2022-08-06T16:47:49;30.46;22.40
5938;DHT22;2994;51.220;4.412;2022-08-06T16:50:14;29.98;21.76
5938;DHT22;2994;51.220;4.412;2022-08-06T16:52:40;29.34;22.59
5938;DHT22;2994;51.220;4.412;2022-08-06T16:55:07;29.05;23.77
5938;DHT22;2994;51.220;4.412;2022-08-06T16:57:33;28.63;24.14
5938;DHT22;2994;51.220;4.412;2022-08-06T16:59:58;28.45;23.98